createdAt,value
2023-10-17T13:25:20.633Z,2.15
2023-10-17T13:27:47.765Z,1.63
2023-10-17T13:30:15.257Z,1.75
2023-10-17T13:32:42.731Z,2.05
2023-10-17T13:35:09.957Z,1.80
2023-10-17T13:37:52.221Z,2.60
2023-10-17T13:40:24.197Z,3.10
2023-10-17T13:42:54.604Z,5.00
2023-10-17T13:45:23.297Z,3.75
2023-10-17T13:47:58.957Z,2.92
2023-10-17T13:50:27.334Z,2.47
2023-10-17T13:52:55.220Z,2.25
2023-10-17T13:55:26.852Z,2.42
2023-10-17T13:57:56.745Z,2.00
2023-10-17T14:00:25.138Z,3.03
2023-10-17T14:02:51.993Z,1.55
2023-10-17T14:05:21.201Z,1.77
2023-10-17T14:07:49.983Z,1.92
2023-10-17T14:10:17.497Z,1.77
2023-10-17T14:12:47.522Z,2.53
2023-10-17T14:15:15.337Z,1.50
2023-10-17T14:17:46.691Z,3.15
2023-10-17T14:20:29.379Z,2.05
2023-10-17T14:23:14.260Z,3.05
2023-10-17T14:26:01.413Z,1.63
2023-10-17T14:28:28.093Z,1.10
2023-10-17T14:30:55.428Z,1.73
2023-10-17T14:33:23.033Z,1.67
2023-10-17T14:35:50.739Z,2.20
2023-10-17T14:38:18.150Z,1.00
2023-10-17T14:40:45.378Z,1.42
2023-10-17T14:43:16.221Z,1.65
2023-10-17T14:45:43.446Z,1.42
2023-10-17T14:48:12.850Z,1.60
2023-10-17T14:50:40.444Z,1.20
2023-10-17T14:53:08.030Z,1.63
2023-10-17T14:55:35.190Z,2.78
2023-10-17T14:58:03.514Z,2.10
2023-10-17T15:00:30.328Z,2.20
2023-10-17T15:03:00.682Z,1.63
2023-10-17T15:05:27.472Z,2.03
2023-10-17T15:07:55.948Z,1.70
2023-10-17T15:10:24.113Z,1.73
2023-10-17T15:12:54.064Z,2.50
2023-10-17T15:15:20.978Z,2.30
2023-10-17T15:17:51.547Z,2.25
2023-10-17T15:20:18.459Z,1.98
2023-10-17T15:22:46.109Z,8.98
2023-10-17T15:25:14.243Z,12.25
2023-10-17T15:27:45.257Z,10.23
2023-10-17T15:30:30.298Z,10.05
2023-10-17T15:33:04.285Z,15.65
2023-10-17T15:35:32.154Z,12.52
2023-10-17T15:37:59.365Z,24.92
2023-10-17T15:40:27.154Z,10.27
2023-10-17T15:42:54.267Z,6.00
2023-10-17T15:45:22.098Z,4.15
2023-10-17T15:47:52.744Z,3.63
2023-10-17T15:50:20.524Z,4.43
2023-10-17T15:52:51.059Z,3.50
2023-10-17T15:55:19.311Z,3.83
2023-10-17T15:57:46.529Z,4.85
2023-10-17T16:00:17.542Z,4.90
2023-10-17T16:02:47.307Z,4.25
2023-10-17T16:05:15.501Z,4.22
2023-10-17T16:07:43.561Z,3.92
2023-10-17T16:10:14.617Z,3.78
2023-10-17T16:12:42.393Z,4.53
2023-10-17T16:15:10.920Z,3.75
2023-10-17T16:17:38.832Z,3.83
2023-10-17T16:20:18.924Z,4.13
2023-10-17T16:22:45.682Z,3.50
2023-10-17T16:25:14.869Z,4.28
2023-10-17T16:27:41.826Z,4.20
2023-10-17T16:30:14.377Z,4.55
2023-10-17T16:32:41.279Z,4.63
2023-10-17T16:35:08.894Z,4.93
2023-10-17T16:37:37.922Z,4.20
2023-10-17T16:40:06.130Z,4.72
2023-10-17T16:42:33.444Z,4.00
2023-10-17T16:45:01.009Z,4.43
2023-10-17T16:47:27.873Z,4.38
2023-10-17T16:49:57.325Z,4.30
2023-10-17T16:52:24.501Z,4.30
2023-10-17T16:54:51.860Z,4.90
2023-10-17T16:57:18.572Z,4.55
2023-10-17T16:59:47.655Z,4.43
2023-10-17T17:02:15.263Z,4.70
2023-10-17T17:04:42.421Z,5.40
2023-10-17T17:07:11.095Z,6.70
2023-10-17T17:09:38.020Z,5.10
2023-10-17T17:12:06.690Z,5.80
2023-10-17T17:14:33.531Z,5.13
2023-10-17T17:17:00.940Z,5.07
2023-10-17T17:19:29.775Z,4.85
2023-10-17T17:21:57.981Z,4.00
2023-10-17T17:24:24.743Z,5.22
2023-10-17T17:26:57.669Z,3.88
2023-10-17T17:29:25.708Z,4.13
2023-10-17T17:31:52.930Z,4.25
2023-10-17T17:34:22.704Z,4.53
2023-10-17T17:36:51.802Z,3.90
2023-10-17T17:39:25.657Z,4.25
2023-10-17T17:41:53.292Z,4.72
2023-10-17T17:44:20.128Z,4.22
2023-10-17T17:46:48.615Z,3.88
2023-10-17T17:49:15.894Z,3.47
2023-10-17T17:51:43.282Z,4.38
2023-10-17T17:54:10.259Z,4.47
2023-10-17T17:56:39.185Z,4.93
2023-10-17T17:59:05.928Z,4.18
2023-10-17T18:01:34.053Z,5.40
2023-10-17T18:04:19.051Z,4.28
2023-10-17T18:06:50.221Z,4.38
2023-10-17T18:09:19.746Z,4.45
2023-10-17T18:11:47.876Z,4.13
2023-10-17T18:14:16.101Z,4.50
2023-10-17T18:16:43.429Z,4.97
2023-10-17T18:19:10.397Z,4.55
2023-10-17T18:21:38.150Z,5.10
2023-10-17T18:24:07.125Z,5.15
2023-10-17T18:26:37.077Z,5.18
2023-10-17T18:29:05.415Z,5.30
2023-10-17T18:31:33.001Z,6.10
2023-10-17T18:33:59.803Z,5.88
2023-10-17T18:36:29.414Z,5.65
2023-10-17T18:39:03.183Z,5.50
2023-10-17T18:41:41.889Z,5.95
2023-10-17T18:44:09.951Z,5.53
2023-10-17T18:46:37.821Z,6.20
2023-10-17T18:49:04.928Z,5.85
2023-10-17T18:51:34.684Z,6.18
2023-10-17T18:54:02.636Z,5.43
2023-10-17T18:56:30.179Z,5.93
2023-10-17T18:58:57.724Z,5.63
2023-10-17T19:01:25.055Z,5.57
2023-10-17T19:03:54.852Z,5.38
2023-10-17T19:06:22.046Z,7.13
2023-10-17T19:08:49.502Z,6.75
2023-10-17T19:11:16.288Z,6.88
2023-10-17T19:13:43.640Z,7.18
2023-10-17T19:16:11.878Z,6.60
2023-10-17T19:18:41.919Z,6.20
2023-10-17T19:21:12.392Z,5.65
2023-10-17T19:23:42.655Z,7.07
2023-10-17T19:26:12.681Z,6.30
2023-10-17T19:28:41.686Z,6.50
2023-10-17T19:31:09.875Z,6.22
2023-10-17T19:33:37.639Z,6.25
2023-10-17T19:36:05.419Z,6.53
2023-10-17T19:38:32.770Z,7.05
2023-10-17T19:40:59.695Z,6.10
2023-10-17T19:43:27.512Z,7.03
2023-10-17T19:45:57.305Z,6.15
2023-10-17T19:48:25.005Z,6.65
2023-10-17T19:50:52.573Z,7.03
2023-10-17T19:53:20.016Z,7.25
2023-10-17T19:55:47.327Z,7.60
2023-10-17T19:58:15.705Z,7.25
2023-10-17T20:00:42.693Z,6.78
2023-10-17T20:03:13.395Z,8.43
2023-10-17T20:05:44.504Z,7.82
2023-10-17T20:08:12.688Z,7.10
2023-10-17T20:10:39.794Z,6.68
2023-10-17T20:13:07.583Z,7.22
2023-10-17T20:15:36.576Z,6.85
2023-10-17T20:18:06.278Z,6.68
2023-10-17T20:20:33.371Z,7.10
2023-10-17T20:23:01.039Z,6.90
2023-10-17T20:25:27.947Z,6.97
2023-10-17T20:27:55.602Z,7.15
2023-10-17T20:30:24.745Z,5.97
2023-10-17T20:32:53.258Z,7.57
2023-10-17T20:35:20.501Z,6.15
2023-10-17T20:37:47.731Z,6.70
2023-10-17T20:40:21.957Z,8.60
2023-10-17T20:42:49.744Z,7.10
2023-10-17T20:45:17.903Z,7.05
2023-10-17T20:47:44.924Z,7.00
2023-10-17T20:50:12.250Z,6.65
2023-10-17T20:52:39.077Z,7.50
2023-10-17T20:55:07.303Z,7.22
2023-10-17T20:57:34.678Z,5.95
2023-10-17T21:00:03.433Z,6.78
2023-10-17T21:02:31.135Z,7.40
2023-10-17T21:04:58.629Z,7.65
2023-10-17T21:07:25.327Z,7.05
2023-10-17T21:09:52.972Z,7.10
2023-10-17T21:12:19.732Z,6.88
2023-10-17T21:14:51.052Z,7.10
2023-10-17T21:17:18.448Z,7.75
2023-10-17T21:19:45.748Z,5.70
2023-10-17T21:22:12.679Z,7.38
2023-10-17T21:24:40.067Z,6.65
2023-10-17T21:27:06.853Z,6.20
2023-10-17T21:29:34.373Z,6.60
2023-10-17T21:32:01.174Z,7.35
2023-10-17T21:34:29.512Z,6.40
2023-10-17T21:36:56.643Z,6.75
2023-10-17T21:39:24.776Z,6.25
2023-10-17T21:41:51.426Z,6.72
2023-10-17T21:44:18.827Z,6.70
2023-10-17T21:46:45.844Z,6.70
2023-10-17T21:49:13.617Z,7.55
2023-10-17T21:51:41.576Z,6.68
2023-10-17T21:54:17.749Z,6.75
2023-10-17T21:56:52.380Z,6.97
2023-10-17T21:59:23.262Z,6.78
2023-10-17T22:01:55.974Z,7.03
2023-10-17T22:04:23.412Z,6.40
2023-10-17T22:06:50.865Z,6.88
2023-10-17T22:09:20.572Z,6.47
2023-10-17T22:11:48.201Z,6.75
2023-10-17T22:14:14.963Z,6.57
2023-10-17T22:16:42.745Z,7.15
2023-10-17T22:19:09.682Z,7.60
2023-10-17T22:21:37.186Z,6.90
2023-10-17T22:24:06.164Z,7.07
2023-10-17T22:27:00.170Z,6.65
2023-10-17T22:29:29.168Z,7.05
2023-10-17T22:32:41.243Z,7.35
2023-10-17T22:35:19.515Z,6.57
2023-10-17T22:37:46.540Z,7.20
2023-10-17T22:40:14.600Z,7.20
2023-10-17T22:42:50.078Z,7.53
2023-10-17T22:45:18.738Z,7.18
2023-10-17T22:47:46.732Z,7.95
2023-10-17T22:50:14.590Z,7.63
2023-10-17T22:55:40.900Z,7.72
2023-10-17T22:58:08.358Z,7.15
2023-10-17T23:00:38.214Z,7.40
2023-10-17T23:03:06.521Z,6.93
2023-10-17T23:05:34.672Z,7.38
2023-10-17T23:08:01.946Z,6.75
2023-10-17T23:10:29.878Z,7.65
2023-10-17T23:13:01.026Z,7.75
2023-10-17T23:15:27.943Z,7.03
2023-10-17T23:17:56.125Z,6.78
2023-10-17T23:20:24.276Z,7.88
2023-10-17T23:23:01.958Z,7.53
2023-10-17T23:25:33.607Z,7.45
2023-10-17T23:28:01.159Z,7.80
2023-10-17T23:30:27.944Z,8.57
2023-10-17T23:32:56.748Z,8.35
2023-10-17T23:35:23.431Z,8.15
2023-10-17T23:37:51.878Z,8.00
2023-10-17T23:40:19.127Z,7.70
2023-10-17T23:42:48.043Z,7.60
2023-10-17T23:45:19.136Z,8.70
2023-10-17T23:47:48.327Z,8.13
2023-10-17T23:50:19.980Z,8.10
2023-10-17T23:52:48.272Z,7.97
2023-10-17T23:55:15.352Z,8.93
2023-10-17T23:57:48.526Z,8.38
